College Station, TX (77844)

4:22 AM CDT on August 30, 2016 (GMT -0500)
APRSWXNET | | Change Station

Elev 313 ft 30.63 °N, 96.35 °W | Updated 32 minutes ago

Overcast
Overcast
71 °F
Feels Like 71 °F
N
0
Wind Variable Wind from SSW
Gusts 0.0 mph

Today
High -- | Low -- °F
--% Chance of Precip.
Yesterday
High -- | Low -- °F
Precip. -- in
Pressure 29.97 in
Visibility 10.0 miles
Clouds Few 700 ft
Overcast 8500 ft
Dew Point 68 °F
Humidity 90%
Rainfall in
Snow Depth Not available.
7:01 AM 7:50 PM
Waning Crescent, 4% visible
METAR KCLL 300853Z AUTO 05007KT 10SM FEW007 OVC085 23/22 A2998 RMK AO2 SLP148 T02280222 58005
Pressure 29.97 in
Visibility 10.0 miles
Clouds Few 700 ft
Overcast 8500 ft
Dew Point 68 °F
Humidity 90%
Rainfall in
Snow Depth Not available.
7:01 AM 7:50 PM
Waning Crescent, 4% visible
METAR KCLL 300853Z AUTO 05007KT 10SM FEW007 OVC085 23/22 A2998 RMK AO2 SLP148 T02280222 58005

10-Day Weather Forecast

Almanac

Astronomy

Aug. 30, 2016 Rise Set
Actual Time
Civil Twilight
Nautical Twilight
Astronomical Twilight
Moon
Length of Visible Light
Length of Day
Tomorrow will be .
, % of the Moon is Illuminated

Today's Extremes

State Highs State Lows

Community

WunderPhotos

Upload Photos

1,935,795 photos uploaded!

WunderBlog® & News

Nearby

Air Quality

  Air Quality AQ Index Pollutant
Not available.

Snow Depth

Station Depth Elevation

Earthquake Activity

City Distance Mag. Time & Date
Minimum magnitude displayed is 2.5.

Coastal Water Temperatures

Place Temperature

Stations

Nearby Weather Stations

Station Location Temp. Windchill Dew Point Humidity Wind Precip. Elev Updated Type
                   

Watches & Warnings

There are currently no watches in effect.